Time;durP1;ratioP1;P1;durP2;ratioP2;P2;SDS_P1;SDS_P2;PMS_P1;PMS_P2;Temp;Humidity;BMP_temperature;BMP_pressure;BME280_temperature;BME280_humidity;BME280_pressure;Samples;Min_cycle;Max_cycle;Signal;HPM_P1;HPM_P2
2021/03/31 00:02:17;;;;;;;5.65;2.38;;;9.10;90.80;;;;;;5038890;28;20136;-85
2021/03/31 00:04:43;;;;;;;8.10;2.40;;;9.20;90.70;;;;;;5038459;28;20031;-83
2021/03/31 00:07:10;;;;;;;5.13;2.70;;;9.20;90.70;;;;;;5038823;28;20384;-89
2021/03/31 00:09:36;;;;;;;6.13;3.30;;;9.20;91.00;;;;;;5038535;28;20025;-86
2021/03/31 00:12:02;;;;;;;8.90;3.80;;;9.20;91.20;;;;;;5038587;28;20431;-83
2021/03/31 00:14:28;;;;;;;8.50;4.13;;;9.20;91.70;;;;;;5038585;28;20078;-83
2021/03/31 00:16:54;;;;;;;6.22;3.25;;;9.20;91.60;;;;;;5038514;28;20021;-86
2021/03/31 00:19:19;;;;;;;6.90;2.90;;;9.10;91.70;;;;;;5038633;28;20033;-85
2021/03/31 00:21:45;;;;;;;5.30;2.90;;;9.10;91.70;;;;;;5038046;28;20025;-87
2021/03/31 00:24:11;;;;;;;7.93;2.95;;;9.10;91.90;;;;;;5038173;28;20024;-85
2021/03/31 00:26:36;;;;;;;7.65;3.25;;;9.00;92.60;;;;;;5037696;28;20028;-86
2021/03/31 00:29:02;;;;;;;9.35;3.38;;;9.10;92.70;;;;;;5038204;28;20021;-83
2021/03/31 00:31:28;;;;;;;5.20;2.58;;;8.90;92.50;;;;;;5038053;28;20021;-86
2021/03/31 00:33:54;;;;;;;6.68;2.67;;;8.90;92.40;;;;;;5038108;28;20491;-86
2021/03/31 00:36:19;;;;;;;5.72;2.67;;;8.80;92.20;;;;;;5038300;28;20036;-86
2021/03/31 00:38:45;;;;;;;5.78;2.75;;;8.80;92.40;;;;;;5037714;28;20441;-86
2021/03/31 00:41:11;;;;;;;6.90;2.90;;;8.70;92.30;;;;;;5037894;28;20031;-86
2021/03/31 00:43:37;;;;;;;3.35;2.42;;;8.70;92.30;;;;;;5037852;28;20059;-84
2021/03/31 00:46:02;;;;;;;6.45;3.00;;;8.60;92.50;;;;;;5037922;28;20025;-88
2021/03/31 00:48:28;;;;;;;5.25;2.60;;;8.70;92.70;;;;;;5037711;28;20021;-85
2021/03/31 00:50:56;;;;;;;7.85;2.58;;;8.50;92.70;;;;;;5038285;28;20451;-83
2021/03/31 00:53:43;;;;;;;10.18;3.10;;;8.50;92.50;;;;;;5037602;28;20096;-84
2021/03/31 00:56:09;;;;;;;5.40;2.90;;;8.50;92.80;;;;;;5037599;28;20029;-88
2021/03/31 00:58:36;;;;;;;5.10;2.90;;;8.40;93.00;;;;;;5037915;28;20029;-85
2021/03/31 01:01:02;;;;;;;9.88;2.80;;;8.40;93.20;;;;;;5037559;28;20028;-86
2021/03/31 01:03:28;;;;;;;10.25;3.28;;;8.40;93.50;;;;;;5037784;28;20056;-86
2021/03/31 01:05:53;;;;;;;7.20;3.08;;;8.30;93.80;;;;;;5037361;28;20021;-84
2021/03/31 01:08:20;;;;;;;4.85;2.67;;;8.30;94.10;;;;;;5037739;28;20056;-86
2021/03/31 01:10:49;;;;;;;7.82;3.17;;;8.30;94.00;;;;;;5037664;28;20025;-83
2021/03/31 01:13:41;;;;;;;8.13;4.22;;;8.20;94.00;;;;;;5037417;28;20036;-85
2021/03/31 01:16:27;;;;;;;7.72;3.15;;;8.30;94.20;;;;;;5037613;28;20032;-86
2021/03/31 01:19:06;;;;;;;5.60;2.85;;;8.10;94.50;;;;;;5037408;28;20025;-85
2021/03/31 01:22:03;;;;;;;4.47;2.80;;;8.10;94.50;;;;;;5037410;28;20086;-84
2021/03/31 01:24:44;;;;;;;6.35;2.78;;;8.10;94.60;;;;;;5037183;28;20026;-83
2021/03/31 01:27:16;;;;;;;6.55;2.85;;;8.10;94.40;;;;;;5054804;28;20104;-86
2021/03/31 01:30:27;;;;;;;4.32;2.65;;;8.10;94.30;;;;;;5036886;28;20036;-85
2021/03/31 01:33:10;;;;;;;6.40;3.15;;;8.00;94.40;;;;;;4954536;28;20038;-83
2021/03/31 01:35:37;;;;;;;6.28;3.33;;;8.00;94.60;;;;;;4954834;28;20122;-86
2021/03/31 01:38:06;;;;;;;7.55;3.13;;;7.90;94.60;;;;;;5002056;28;20025;-86
2021/03/31 01:40:37;;;;;;;6.10;3.00;;;7.90;94.80;;;;;;5036924;28;20021;-85
2021/03/31 01:43:07;;;;;;;6.80;3.00;;;7.80;94.70;;;;;;5055164;28;20036;-86
2021/03/31 01:45:34;;;;;;;8.23;3.30;;;7.70;94.90;;;;;;5036746;28;20028;-84
2021/03/31 01:48:06;;;;;;;6.68;2.78;;;7.70;95.00;;;;;;5037362;28;20372;-86
2021/03/31 01:50:33;;;;;;;5.22;3.08;;;7.70;95.10;;;;;;5054396;28;20021;-85
2021/03/31 01:53:01;;;;;;;5.32;3.15;;;7.70;95.00;;;;;;5036900;28;20044;-85
2021/03/31 01:55:28;;;;;;;5.90;3.08;;;7.80;94.90;;;;;;5036457;28;20547;-86
2021/03/31 01:57:55;;;;;;;8.00;2.97;;;7.80;94.80;;;;;;5036742;28;20025;-85
2021/03/31 02:00:21;;;;;;;7.82;3.03;;;7.70;94.80;;;;;;5054722;28;20097;-86
2021/03/31 02:02:55;;;;;;;5.32;2.90;;;7.70;94.80;;;;;;5036970;28;20045;-84
2021/03/31 02:05:22;;;;;;;13.23;2.83;;;7.60;95.00;;;;;;5054508;28;20070;-85
2021/03/31 02:07:49;;;;;;;8.40;3.05;;;7.60;95.00;;;;;;5054864;28;20032;-84
2021/03/31 02:10:17;;;;;;;5.68;3.05;;;7.50;95.20;;;;;;5036588;28;20047;-87
2021/03/31 02:12:44;;;;;;;7.05;2.60;;;7.50;95.10;;;;;;5036875;28;20025;-87
2021/03/31 02:15:14;;;;;;;4.85;2.40;;;7.50;95.00;;;;;;5036594;28;20068;-86
2021/03/31 02:17:40;;;;;;;5.13;2.15;;;7.40;94.70;;;;;;5036861;28;20028;-85
2021/03/31 02:20:08;;;;;;;3.40;1.88;;;7.30;94.80;;;;;;5036793;28;20076;-86
2021/03/31 02:22:35;;;;;;;4.55;2.45;;;7.20;95.00;;;;;;5037277;28;20024;-85
2021/03/31 02:25:03;;;;;;;7.90;2.47;;;7.10;95.60;;;;;;5036692;28;20021;-85
2021/03/31 02:27:29;;;;;;;10.18;2.60;;;7.10;95.60;;;;;;5036242;28;20477;-86
2021/03/31 02:29:55;;;;;;;8.77;3.85;;;7.20;95.70;;;;;;5036071;28;20032;-88
2021/03/31 02:32:22;;;;;;;8.00;2.95;;;7.10;95.40;;;;;;5036682;28;20032;-87
2021/03/31 02:34:52;;;;;;;5.00;2.42;;;7.10;95.40;;;;;;5036293;28;20041;-86
2021/03/31 02:37:19;;;;;;;4.20;2.40;;;7.10;95.80;;;;;;5036251;28;20483;-85
2021/03/31 02:39:48;;;;;;;7.22;3.10;;;7.10;95.70;;;;;;5036551;28;20040;-85
2021/03/31 02:42:15;;;;;;;4.38;2.50;;;7.10;95.60;;;;;;5054369;28;20025;-85
2021/03/31 02:44:44;;;;;;;7.10;2.50;;;7.00;95.60;;;;;;5036585;28;20090;-86
2021/03/31 02:47:14;;;;;;;6.20;2.60;;;7.00;95.50;;;;;;5039620;28;20082;-83
2021/03/31 02:49:42;;;;;;;3.88;2.40;;;7.00;95.70;;;;;;5039982;28;20462;-84
2021/03/31 02:52:09;;;;;;;4.28;2.30;;;7.00;95.90;;;;;;5039973;28;20391;-84
2021/03/31 02:54:35;;;;;;;5.05;2.42;;;6.90;96.20;;;;;;5039581;28;20047;-85
2021/03/31 02:57:00;;;;;;;6.63;2.40;;;6.90;96.00;;;;;;5039295;28;20032;-85
2021/03/31 02:59:26;;;;;;;5.57;2.42;;;6.90;95.80;;;;;;5039267;28;20132;-85
2021/03/31 03:01:53;;;;;;;6.93;2.70;;;6.90;96.00;;;;;;5039024;28;20021;-86
2021/03/31 03:04:21;;;;;;;5.80;3.28;;;6.90;95.90;;;;;;5039339;28;20039;-85
2021/03/31 03:06:47;;;;;;;8.13;2.97;;;6.90;96.00;;;;;;5039255;28;20033;-85
2021/03/31 03:09:13;;;;;;;9.35;2.95;;;6.80;96.00;;;;;;5039733;28;20373;-86
2021/03/31 03:11:39;;;;;;;7.68;3.05;;;6.90;96.20;;;;;;5039559;28;20054;-84
2021/03/31 03:14:08;;;;;;;4.13;2.53;;;6.80;96.00;;;;;;5039243;28;20036;-86
2021/03/31 03:16:34;;;;;;;6.90;3.30;;;6.80;96.10;;;;;;5039269;28;20021;-85
2021/03/31 03:19:00;;;;;;;9.75;4.97;;;6.70;96.40;;;;;;5039165;28;20037;-84
2021/03/31 03:21:31;;;;;;;6.63;4.10;;;6.60;96.50;;;;;;5022266;28;20021;-86
2021/03/31 03:23:57;;;;;;;11.10;4.28;;;6.60;96.80;;;;;;5057122;28;20027;-84
2021/03/31 03:26:24;;;;;;;10.63;4.68;;;6.50;97.10;;;;;;5039172;28;20036;-85
2021/03/31 03:28:50;;;;;;;14.07;3.83;;;6.50;97.10;;;;;;5057026;28;20035;-84
2021/03/31 03:31:16;;;;;;;19.95;4.90;;;6.50;97.30;;;;;;5038780;28;20427;-85
2021/03/31 03:33:42;;;;;;;9.18;4.25;;;6.40;97.50;;;;;;5039292;28;20029;-85
2021/03/31 03:36:11;;;;;;;9.95;4.15;;;6.50;97.70;;;;;;5039010;28;20025;-84
2021/03/31 03:38:37;;;;;;;11.20;4.30;;;6.50;97.70;;;;;;5039059;28;20026;-85
2021/03/31 03:41:08;;;;;;;11.93;4.05;;;6.40;97.70;;;;;;5039014;28;20167;-85
2021/03/31 03:43:37;;;;;;;8.18;4.25;;;6.60;97.60;;;;;;5039017;28;20376;-84
2021/03/31 03:46:05;;;;;;;7.63;3.80;;;6.60;97.50;;;;;;5039062;28;20487;-83
2021/03/31 03:48:31;;;;;;;8.90;4.03;;;6.60;97.40;;;;;;5056837;28;20021;-85
2021/03/31 03:50:57;;;;;;;7.32;3.63;;;6.60;97.30;;;;;;5038687;28;20033;-85
2021/03/31 03:53:27;;;;;;;10.65;3.38;;;6.60;97.20;;;;;;5056748;28;20051;-84
2021/03/31 03:55:54;;;;;;;12.57;3.50;;;6.60;97.00;;;;;;5038691;28;20032;-85
2021/03/31 03:58:20;;;;;;;10.65;3.45;;;6.70;96.80;;;;;;5037483;28;20021;-84
2021/03/31 04:00:45;;;;;;;12.00;3.40;;;6.70;96.70;;;;;;5038764;28;20074;-83
2021/03/31 04:03:11;;;;;;;6.28;3.50;;;6.70;96.30;;;;;;5038901;28;20503;-84
2021/03/31 04:05:36;;;;;;;9.57;4.75;;;6.60;96.40;;;;;;5038734;28;20040;-84
2021/03/31 04:08:02;;;;;;;7.47;3.67;;;6.70;96.60;;;;;;5038198;28;20029;-85
2021/03/31 04:10:29;;;;;;;11.40;3.70;;;6.40;96.80;;;;;;5056513;28;20526;-85
2021/03/31 04:12:59;;;;;;;9.93;3.78;;;6.40;97.20;;;;;;5038045;28;20027;-85
2021/03/31 04:15:25;;;;;;;6.75;3.88;;;6.30;97.40;;;;;;5055830;28;20041;-86
2021/03/31 04:17:52;;;;;;;11.27;4.10;;;6.30;97.80;;;;;;5037200;28;20025;-86
2021/03/31 04:20:23;;;;;;;7.30;3.92;;;6.40;97.60;;;;;;5037473;28;20387;-83
2021/03/31 04:22:49;;;;;;;11.68;4.03;;;6.30;97.70;;;;;;5037914;28;20021;-85
2021/03/31 04:25:18;;;;;;;6.97;4.35;;;6.30;97.60;;;;;;5037804;28;20035;-85
2021/03/31 04:27:47;;;;;;;10.07;4.75;;;6.40;97.60;;;;;;5037836;28;20021;-84
2021/03/31 04:30:13;;;;;;;6.70;3.95;;;6.30;97.50;;;;;;5037776;28;20035;-85
2021/03/31 04:32:44;;;;;;;13.35;5.07;;;6.20;97.70;;;;;;5037728;28;20028;-84
2021/03/31 04:35:11;;;;;;;11.25;4.70;;;6.20;97.80;;;;;;5037922;28;20067;-85
2021/03/31 04:37:37;;;;;;;6.65;4.15;;;6.10;97.80;;;;;;5037621;28;20029;-85
2021/03/31 04:40:05;;;;;;;6.57;3.83;;;6.10;97.90;;;;;;5037819;28;20048;-83
2021/03/31 04:42:30;;;;;;;7.60;3.92;;;6.10;98.10;;;;;;5037489;28;20029;-83
2021/03/31 04:44:56;;;;;;;14.13;5.40;;;6.20;98.10;;;;;;5037869;28;20487;-84
2021/03/31 04:47:23;;;;;;;6.78;3.75;;;6.20;98.00;;;;;;5037634;28;20021;-83
2021/03/31 04:49:48;;;;;;;7.32;4.07;;;6.20;97.90;;;;;;5037707;28;20170;-86
2021/03/31 04:52:14;;;;;;;8.02;4.22;;;6.20;97.90;;;;;;5037522;28;20056;-83
2021/03/31 04:54:39;;;;;;;6.50;3.75;;;6.20;97.80;;;;;;5037451;28;20384;-85
2021/03/31 04:57:05;;;;;;;15.05;4.90;;;6.20;97.80;;;;;;5039490;28;20025;-84
2021/03/31 04:59:31;;;;;;;12.20;3.80;;;6.20;98.00;;;;;;5041777;28;20025;-83
2021/03/31 05:01:56;;;;;;;11.57;4.03;;;6.20;98.00;;;;;;5037367;28;20075;-84
2021/03/31 05:04:22;;;;;;;6.93;3.60;;;6.10;98.10;;;;;;5055230;28;20047;-83
2021/03/31 05:06:48;;;;;;;9.93;3.20;;;6.60;97.60;;;;;;5036882;28;20446;-81
2021/03/31 05:09:13;;;;;;;6.57;3.88;;;6.50;97.30;;;;;;5041347;28;20071;-84
2021/03/31 05:11:39;;;;;;;10.77;3.50;;;6.40;97.40;;;;;;5037662;28;20024;-85
2021/03/31 05:14:05;;;;;;;9.70;4.00;;;6.30;97.60;;;;;;5036856;28;20032;-83
2021/03/31 05:16:31;;;;;;;15.25;3.83;;;6.30;97.70;;;;;;5037341;28;20029;-85
2021/03/31 05:18:56;;;;;;;9.00;3.50;;;6.30;97.90;;;;;;5037515;28;20052;-86
2021/03/31 05:21:22;;;;;;;10.13;3.53;;;6.30;97.80;;;;;;5037340;28;20029;-85
2021/03/31 05:23:47;;;;;;;12.15;4.18;;;6.40;97.90;;;;;;5037318;28;20029;-85
2021/03/31 05:26:13;;;;;;;7.75;4.38;;;6.30;97.90;;;;;;5036687;28;20021;-85
2021/03/31 05:28:39;;;;;;;8.30;4.18;;;6.40;97.70;;;;;;5036801;28;20475;-85
2021/03/31 05:31:04;;;;;;;12.98;5.32;;;6.50;97.70;;;;;;5054812;28;20021;-86
2021/03/31 05:33:30;;;;;;;11.02;4.00;;;6.60;97.50;;;;;;5036775;28;20450;-84
2021/03/31 05:35:56;;;;;;;10.80;4.43;;;6.70;97.50;;;;;;5037047;28;20025;-85
2021/03/31 05:38:21;;;;;;;9.75;4.20;;;6.80;97.40;;;;;;5036871;28;20468;-86
2021/03/31 05:40:47;;;;;;;14.25;4.68;;;6.90;97.20;;;;;;5036898;28;20021;-84
2021/03/31 05:43:16;;;;;;;11.07;4.70;;;6.90;97.00;;;;;;5036740;28;20048;-83
2021/03/31 05:45:43;;;;;;;19.08;5.65;;;7.00;96.90;;;;;;5036516;28;20025;-84
2021/03/31 05:48:09;;;;;;;10.07;5.30;;;7.10;96.90;;;;;;5037021;28;20082;-83
2021/03/31 05:50:35;;;;;;;13.15;4.72;;;7.10;96.80;;;;;;5037035;28;20029;-84
2021/03/31 05:53:01;;;;;;;16.70;6.50;;;7.20;96.60;;;;;;5036877;28;20039;-86
2021/03/31 05:55:27;;;;;;;16.17;4.45;;;7.30;96.40;;;;;;5036855;28;20036;-85
2021/03/31 05:57:53;;;;;;;9.73;4.72;;;7.40;96.20;;;;;;5036554;28;20047;-83
2021/03/31 06:00:21;;;;;;;14.77;4.97;;;7.60;95.80;;;;;;5036569;28;20119;-84
2021/03/31 06:02:48;;;;;;;11.00;5.07;;;7.60;95.80;;;;;;5054359;28;20045;-85
2021/03/31 06:05:16;;;;;;;10.18;4.40;;;7.80;95.50;;;;;;5036608;28;20031;-86
2021/03/31 06:07:49;;;;;;;19.63;5.88;;;7.90;95.30;;;;;;5036514;28;20472;-86
2021/03/31 06:10:17;;;;;;;15.52;5.05;;;8.00;95.20;;;;;;5036596;28;20033;-83
2021/03/31 06:12:55;;;;;;;12.73;5.03;;;8.10;95.30;;;;;;5037094;28;20032;-85
2021/03/31 06:15:29;;;;;;;8.15;4.32;;;8.20;95.20;;;;;;5036902;28;20438;-84
2021/03/31 06:17:58;;;;;;;9.98;4.40;;;8.30;94.90;;;;;;5037295;28;20025;-88
2021/03/31 06:20:54;;;;;;;14.05;5.47;;;8.40;94.70;;;;;;5037941;28;20127;-85
2021/03/31 06:26:01;;;;;;;17.50;5.20;;;8.70;94.30;;;;;;5058462;28;20083;-85
2021/03/31 06:28:28;;;;;;;14.75;4.55;;;8.90;93.90;;;;;;5040817;28;20071;-85
2021/03/31 06:31:11;;;;;;;15.57;8.35;;;9.00;93.60;;;;;;5040504;28;20024;-85
2021/03/31 06:33:38;;;;;;;13.02;5.85;;;9.30;93.40;;;;;;5062331;28;20063;-84
2021/03/31 06:36:06;;;;;;;11.38;4.35;;;9.40;92.80;;;;;;5076796;28;20044;-85
2021/03/31 06:38:33;;;;;;;9.40;4.72;;;9.60;92.40;;;;;;5077120;28;20499;-84
2021/03/31 06:41:38;;;;;;;10.05;4.63;;;9.70;92.20;;;;;;5074691;28;20107;-84
2021/03/31 06:44:16;;;;;;;11.07;4.90;;;9.90;91.80;;;;;;5057831;28;20528;-86
2021/03/31 06:49:16;;;;;;;16.30;5.10;;;10.30;91.80;;;;;;5077443;28;20074;-85
2021/03/31 06:51:43;;;;;;;12.02;4.85;;;10.50;91.10;;;;;;5059394;28;20464;-87
2021/03/31 06:54:22;;;;;;;6.15;3.83;;;10.70;90.90;;;;;;5059764;28;20479;-87
2021/03/31 06:56:57;;;;;;;10.75;4.30;;;10.80;90.00;;;;;;5059584;28;20031;-85
2021/03/31 06:59:27;;;;;;;10.82;3.53;;;11.00;90.00;;;;;;5059433;28;20028;-86
2021/03/31 07:01:53;;;;;;;15.60;4.10;;;11.30;89.70;;;;;;5060818;28;20471;-86
2021/03/31 07:04:19;;;;;;;7.60;4.05;;;11.70;85.20;;;;;;5060448;28;20020;-85
2021/03/31 07:07:07;;;;;;;14.80;3.60;;;12.10;83.10;;;;;;5060406;28;20020;-85
2021/03/31 07:09:34;;;;;;;6.45;3.15;;;12.30;83.20;;;;;;5059577;28;20137;-85
2021/03/31 07:12:00;;;;;;;14.18;3.60;;;12.60;79.20;;;;;;5060122;28;20060;-85
2021/03/31 07:14:27;;;;;;;7.25;3.72;;;12.80;77.80;;;;;;5059752;28;20591;-87
2021/03/31 07:16:54;;;;;;;10.55;3.55;;;12.90;74.20;;;;;;5077689;28;20126;-87
2021/03/31 07:19:21;;;;;;;7.35;3.75;;;13.00;73.80;;;;;;5059662;28;20031;-88
2021/03/31 07:21:49;;;;;;;8.60;3.33;;;13.20;72.60;;;;;;5059334;28;20027;-88
2021/03/31 07:24:16;;;;;;;11.77;4.30;;;13.30;72.30;;;;;;5059218;28;20028;-87
2021/03/31 07:26:47;;;;;;;9.63;3.53;;;13.40;70.70;;;;;;5059384;28;20020;-86
2021/03/31 07:29:16;;;;;;;11.95;4.10;;;13.50;70.00;;;;;;5059726;28;20025;-80
2021/03/31 07:31:44;;;;;;;10.23;3.47;;;13.60;70.10;;;;;;5056933;28;20020;-84
2021/03/31 07:34:19;;;;;;;8.25;4.30;;;13.80;71.60;;;;;;5058174;28;20081;-80
2021/03/31 07:36:48;;;;;;;11.65;3.35;;;14.00;69.20;;;;;;5056912;28;20025;-80
2021/03/31 07:39:16;;;;;;;8.02;3.38;;;14.20;65.90;;;;;;5057192;28;20426;-78
2021/03/31 07:41:43;;;;;;;10.63;4.28;;;14.30;66.20;;;;;;5057365;28;20025;-79
2021/03/31 07:44:16;;;;;;;10.40;3.53;;;14.50;66.20;;;;;;5057083;28;20051;-80
2021/03/31 07:46:44;;;;;;;10.38;3.30;;;14.60;64.30;;;;;;5057424;28;20021;-80
2021/03/31 07:49:11;;;;;;;9.55;4.15;;;14.80;64.60;;;;;;5056933;28;20515;-90
2021/03/31 07:51:37;;;;;;;11.00;3.22;;;14.90;63.60;;;;;;5057982;28;20015;-84
2021/03/31 07:54:04;;;;;;;9.50;3.67;;;15.00;63.50;;;;;;5057264;28;20134;-86
2021/03/31 07:56:36;;;;;;;8.13;3.28;;;15.10;63.20;;;;;;5057262;28;20020;-87
2021/03/31 07:59:02;;;;;;;8.13;3.50;;;15.20;62.50;;;;;;5057784;28;20029;-86
2021/03/31 08:01:40;;;;;;;7.70;3.72;;;15.40;62.00;;;;;;5056695;28;20029;-83
2021/03/31 08:04:06;;;;;;;11.85;3.70;;;15.60;61.00;;;;;;5068408;28;20055;-84
2021/03/31 08:06:33;;;;;;;8.73;4.10;;;15.70;61.60;;;;;;5066183;28;20032;-85
2021/03/31 08:09:04;;;;;;;6.60;3.58;;;15.90;60.50;;;;;;5056076;28;20044;-84
2021/03/31 08:11:39;;;;;;;7.90;3.40;;;16.10;59.50;;;;;;5056088;28;20484;-86
2021/03/31 08:14:06;;;;;;;12.88;3.30;;;16.30;58.50;;;;;;5038517;28;20394;-86
2021/03/31 08:16:38;;;;;;;10.23;3.67;;;16.40;60.40;;;;;;5035987;28;20484;-84
2021/03/31 08:19:15;;;;;;;26.85;4.45;;;16.60;58.20;;;;;;5035342;28;20052;-86
2021/03/31 08:21:44;;;;;;;9.05;3.67;;;16.80;55.00;;;;;;5036037;28;20551;-85
2021/03/31 08:24:11;;;;;;;10.57;4.63;;;17.00;54.70;;;;;;5035849;28;20017;-84
2021/03/31 08:26:38;;;;;;;10.82;4.30;;;17.10;56.60;;;;;;5053614;28;20032;-84
2021/03/31 08:29:07;;;;;;;11.77;4.40;;;17.20;55.50;;;;;;5036059;28;20017;-85
2021/03/31 08:32:00;;;;;;;11.93;4.07;;;17.30;55.80;;;;;;5035499;28;20086;-85
2021/03/31 08:34:29;;;;;;;10.57;4.82;;;17.50;56.80;;;;;;5025688;28;20045;-84
2021/03/31 08:36:56;;;;;;;13.00;4.10;;;17.60;55.40;;;;;;5019497;28;20029;-85
2021/03/31 08:39:24;;;;;;;12.30;5.18;;;17.70;53.70;;;;;;5035618;28;20111;-88
2021/03/31 08:41:55;;;;;;;14.43;5.70;;;17.80;54.50;;;;;;5035755;28;20044;-83
2021/03/31 08:44:37;;;;;;;11.90;4.90;;;18.00;55.30;;;;;;5053660;28;20056;-89
2021/03/31 08:47:16;;;;;;;16.70;5.72;;;18.20;54.80;;;;;;5036529;28;20036;-86
2021/03/31 08:49:43;;;;;;;16.67;7.05;;;18.40;52.70;;;;;;5046287;28;20085;-86
2021/03/31 08:52:12;;;;;;;11.55;5.88;;;18.60;52.30;;;;;;5056545;28;20029;-86
2021/03/31 08:54:43;;;;;;;11.75;6.53;;;18.80;50.70;;;;;;5056761;28;20033;-82
2021/03/31 08:57:13;;;;;;;17.10;8.70;;;18.90;50.60;;;;;;5069178;28;20020;-89
2021/03/31 08:59:42;;;;;;;16.83;8.60;;;19.00;47.80;;;;;;5072782;28;20025;-84
2021/03/31 09:02:09;;;;;;;18.42;9.48;;;19.10;46.10;;;;;;5076304;28;20483;-91
2021/03/31 09:04:35;;;;;;;16.92;8.90;;;19.20;45.30;;;;;;5076301;28;20055;-83
2021/03/31 09:07:04;;;;;;;21.02;10.35;;;19.20;45.20;;;;;;5076787;28;20052;-84
2021/03/31 09:09:38;;;;;;;16.80;9.73;;;19.20;45.30;;;;;;5076564;28;20035;-89
2021/03/31 09:12:07;;;;;;;16.67;8.98;;;19.30;45.30;;;;;;5076409;28;20024;-81
2021/03/31 09:14:33;;;;;;;16.50;9.70;;;19.40;44.90;;;;;;5076259;28;20032;-83
2021/03/31 09:17:01;;;;;;;15.02;8.18;;;19.40;44.60;;;;;;5075638;28;20020;-85
2021/03/31 09:19:33;;;;;;;16.02;8.93;;;19.40;46.70;;;;;;5075636;28;20479;-78
2021/03/31 09:22:10;;;;;;;17.65;8.65;;;19.50;45.20;;;;;;5093618;28;20024;-85
2021/03/31 09:24:40;;;;;;;13.20;8.38;;;19.60;45.40;;;;;;5075491;28;20032;-77
2021/03/31 09:27:07;;;;;;;17.83;9.07;;;19.70;47.00;;;;;;5093486;28;20020;-78
2021/03/31 09:29:36;;;;;;;15.98;8.55;;;19.70;46.10;;;;;;5073840;28;20020;-86
2021/03/31 09:32:03;;;;;;;15.88;8.18;;;19.80;45.30;;;;;;5074219;28;20028;-77
2021/03/31 09:34:29;;;;;;;20.98;9.65;;;19.90;45.40;;;;;;5074178;28;20032;-79
2021/03/31 09:37:01;;;;;;;16.50;9.38;;;20.00;43.40;;;;;;5074782;28;20027;-85
2021/03/31 09:39:46;;;;;;;15.73;8.68;;;19.90;43.50;;;;;;5074077;28;20156;-78
2021/03/31 09:42:22;;;;;;;20.23;9.02;;;20.10;43.10;;;;;;5092310;28;20051;-79
2021/03/31 09:44:49;;;;;;;16.15;8.85;;;20.10;43.40;;;;;;5092190;28;20111;-79
2021/03/31 09:47:17;;;;;;;14.90;8.55;;;20.10;44.40;;;;;;5073715;28;20024;-81
2021/03/31 09:49:44;;;;;;;17.35;8.02;;;20.20;43.80;;;;;;5091994;28;20024;-81
2021/03/31 09:52:13;;;;;;;15.63;7.85;;;20.10;43.60;;;;;;5074210;28;20250;-84
2021/03/31 09:54:40;;;;;;;17.55;8.48;;;20.10;43.50;;;;;;5073782;28;20040;-77
2021/03/31 09:57:07;;;;;;;14.23;7.75;;;20.20;44.30;;;;;;5095901;28;20505;-78
2021/03/31 09:59:33;;;;;;;16.23;8.13;;;20.30;44.70;;;;;;5078019;28;20043;-79
2021/03/31 10:02:00;;;;;;;15.40;8.00;;;20.20;44.10;;;;;;5078495;28;20021;-82
2021/03/31 10:04:26;;;;;;;16.65;7.00;;;20.30;45.60;;;;;;5078614;28;20031;-83
2021/03/31 10:07:16;;;;;;;15.15;7.18;;;20.40;45.30;;;;;;5078452;28;20024;-83
2021/03/31 10:09:47;;;;;;;17.55;7.07;;;20.40;45.80;;;;;;5062914;28;20029;-83
2021/03/31 10:12:21;;;;;;;15.27;6.70;;;20.50;44.40;;;;;;5096566;28;20042;-83
2021/03/31 10:14:50;;;;;;;14.88;6.82;;;20.60;44.50;;;;;;5078087;28;20430;-80
2021/03/31 10:17:18;;;;;;;12.60;6.57;;;20.60;44.90;;;;;;5078376;28;20021;-81
2021/03/31 10:19:44;;;;;;;17.90;7.80;;;20.60;44.40;;;;;;5096112;28;20035;-77
2021/03/31 10:22:11;;;;;;;17.35;7.90;;;20.80;44.70;;;;;;5069423;28;20021;-81
2021/03/31 10:24:41;;;;;;;15.25;7.78;;;21.00;43.50;;;;;;5066586;28;20035;-85
2021/03/31 10:27:10;;;;;;;13.77;7.90;;;21.10;43.10;;;;;;5049847;28;20021;-78
2021/03/31 10:29:54;;;;;;;13.68;7.95;;;21.20;42.60;;;;;;5065831;28;20126;-78
2021/03/31 10:32:23;;;;;;;12.57;7.82;;;21.10;42.50;;;;;;5058329;28;20032;-81
2021/03/31 10:34:54;;;;;;;13.38;7.82;;;21.30;41.80;;;;;;5063421;28;20080;-79
2021/03/31 10:37:36;;;;;;;13.60;7.13;;;21.20;41.00;;;;;;5077624;28;20031;-79
2021/03/31 10:48:51;;;;;;;14.23;7.32;;;21.50;41.30;;;;;;5097020;28;20054;-78
2021/03/31 10:51:30;;;;;;;12.38;6.35;;;21.70;41.20;;;;;;5076955;28;20065;-79
2021/03/31 10:56:23;;;;;;;12.48;7.15;;;21.80;40.50;;;;;;5098246;28;20456;-77
2021/03/31 10:58:49;;;;;;;13.25;7.13;;;21.90;39.00;;;;;;5072087;28;20147;-76
2021/03/31 11:01:14;;;;;;;14.73;7.28;;;21.80;38.90;;;;;;5074671;28;20058;-77
2021/03/31 11:03:40;;;;;;;13.93;6.72;;;21.90;38.40;;;;;;5056247;28;20040;-80
2021/03/31 11:06:06;;;;;;;15.30;6.03;;;21.90;38.00;;;;;;5056496;28;20024;-76
2021/03/31 11:08:32;;;;;;;13.43;6.60;;;22.00;36.30;;;;;;5049478;28;20074;-78
2021/03/31 11:10:58;;;;;;;14.30;6.68;;;21.80;37.60;;;;;;5064630;28;20020;-76
2021/03/31 11:13:24;;;;;;;15.35;7.07;;;21.90;37.60;;;;;;5057641;28;20028;-78
2021/03/31 11:15:52;;;;;;;13.93;7.13;;;21.90;37.50;;;;;;5056965;28;20032;-78
2021/03/31 11:25:59;;;;;;;12.95;6.88;;;22.30;40.10;;;;;;5075304;28;20376;-77
2021/03/31 11:28:26;;;;;;;12.85;7.10;;;22.30;39.40;;;;;;5057367;28;20020;-77
2021/03/31 11:30:53;;;;;;;11.98;6.90;;;22.40;39.10;;;;;;5075148;28;20031;-77
2021/03/31 11:33:21;;;;;;;11.80;6.60;;;22.30;38.80;;;;;;5057138;28;20059;-79
2021/03/31 11:35:47;;;;;;;13.75;6.68;;;22.30;38.20;;;;;;5057432;28;20035;-77
2021/03/31 11:38:14;;;;;;;11.50;6.57;;;22.20;37.50;;;;;;5056821;28;20020;-77
2021/03/31 11:40:40;;;;;;;10.82;6.45;;;22.20;37.60;;;;;;5057197;28;20035;-77
2021/03/31 11:43:07;;;;;;;13.27;7.00;;;22.30;38.20;;;;;;5057354;28;20024;-79
2021/03/31 11:45:33;;;;;;;12.80;6.60;;;22.40;37.10;;;;;;5057224;28;20463;-76
2021/03/31 11:47:59;;;;;;;13.55;6.05;;;22.30;37.40;;;;;;5057187;28;20036;-76
2021/03/31 11:50:25;;;;;;;10.95;6.13;;;22.40;39.00;;;;;;5074941;28;20067;-76
2021/03/31 11:52:52;;;;;;;10.77;6.10;;;22.40;37.80;;;;;;5056962;28;20483;-77
2021/03/31 11:55:18;;;;;;;10.68;6.38;;;22.50;37.80;;;;;;5056525;28;20039;-78
2021/03/31 11:57:44;;;;;;;13.48;6.47;;;22.50;37.80;;;;;;5056946;28;20013;-78
2021/03/31 12:00:10;;;;;;;14.93;6.70;;;22.60;39.90;;;;;;5056725;28;20031;-77
2021/03/31 12:02:35;;;;;;;9.10;5.95;;;22.70;38.20;;;;;;5058465;28;20032;-77
2021/03/31 12:05:01;;;;;;;13.82;6.60;;;22.90;36.90;;;;;;5057623;28;20035;-76
2021/03/31 12:07:28;;;;;;;10.52;5.63;;;22.90;37.40;;;;;;5065557;28;20024;-76
2021/03/31 12:09:53;;;;;;;9.32;5.35;;;22.90;37.10;;;;;;5073293;28;20024;-77
2021/03/31 12:12:19;;;;;;;11.60;5.63;;;22.80;36.90;;;;;;5072368;28;20020;-78
2021/03/31 12:14:45;;;;;;;10.40;5.47;;;22.80;38.00;;;;;;5071919;28;20375;-79
2021/03/31 12:17:11;;;;;;;9.55;5.00;;;22.70;37.10;;;;;;5072755;28;20034;-76
2021/03/31 12:19:36;;;;;;;14.75;6.18;;;22.60;37.50;;;;;;5056453;28;20025;-80
2021/03/31 12:22:03;;;;;;;13.55;6.53;;;22.60;38.80;;;;;;5054832;28;20035;-78
2021/03/31 12:24:29;;;;;;;12.20;5.95;;;22.70;37.50;;;;;;5055279;28;20369;-78
2021/03/31 12:27:02;;;;;;;13.48;6.63;;;22.80;39.60;;;;;;5072915;28;20069;-76
2021/03/31 12:29:28;;;;;;;10.35;5.60;;;22.70;37.30;;;;;;5055198;28;20031;-77
2021/03/31 12:31:53;;;;;;;12.27;5.88;;;22.80;37.30;;;;;;5054966;28;20020;-79
2021/03/31 12:34:19;;;;;;;10.18;5.97;;;22.90;36.70;;;;;;5054099;28;20133;-78
2021/03/31 12:36:45;;;;;;;12.20;5.65;;;22.80;36.90;;;;;;5054410;28;20066;-78
2021/03/31 12:39:10;;;;;;;10.13;5.60;;;22.80;37.30;;;;;;5054608;28;20085;-79
2021/03/31 12:41:36;;;;;;;10.73;6.00;;;22.80;37.70;;;;;;5054391;28;20036;-78
2021/03/31 12:44:02;;;;;;;11.00;6.35;;;22.90;37.40;;;;;;5055020;28;20020;-78
2021/03/31 12:46:27;;;;;;;9.70;5.05;;;23.00;36.90;;;;;;5072615;28;20017;-77
2021/03/31 12:48:53;;;;;;;8.07;5.00;;;23.00;38.50;;;;;;5054951;28;20113;-79
2021/03/31 12:51:31;;;;;;;7.88;4.47;;;23.10;37.10;;;;;;5054202;28;20439;-79
2021/03/31 12:54:03;;;;;;;10.13;5.82;;;23.10;38.10;;;;;;5054539;28;20494;-79
2021/03/31 12:56:29;;;;;;;9.15;5.00;;;23.10;36.60;;;;;;5057632;28;20107;-79
2021/03/31 12:58:54;;;;;;;9.57;4.60;;;23.10;37.50;;;;;;5054327;28;20111;-78
2021/03/31 13:01:24;;;;;;;11.77;5.18;;;23.10;37.50;;;;;;5054621;28;20020;-78
2021/03/31 13:03:51;;;;;;;6.72;4.80;;;23.00;35.60;;;;;;5072185;28;20040;-78
2021/03/31 13:06:18;;;;;;;10.73;4.90;;;23.00;36.30;;;;;;5054482;28;20021;-79
2021/03/31 13:08:46;;;;;;;9.90;4.68;;;23.10;36.40;;;;;;5052683;28;20024;-77
2021/03/31 13:11:12;;;;;;;9.00;4.65;;;23.10;36.40;;;;;;5052965;28;20024;-78
2021/03/31 13:16:45;;;;;;;11.85;4.47;;;23.30;37.20;;;;;;5072288;28;20102;-78
2021/03/31 13:22:14;;;;;;;8.40;4.43;;;23.20;36.00;;;;;;5071981;28;20158;-79
2021/03/31 13:32:40;;;;;;;10.40;4.13;;;23.00;37.30;;;;;;5072545;28;20128;-80